createdAt,value
2022-08-20T00:00:25.092Z,5.30
2022-08-20T00:02:55.589Z,4.93
2022-08-20T00:05:32.317Z,4.60
2022-08-20T00:08:00.477Z,4.73
2022-08-20T00:10:28.928Z,4.17
2022-08-20T00:12:56.938Z,4.03
2022-08-20T00:15:29.312Z,4.73
2022-08-20T00:17:57.259Z,4.80
2022-08-20T00:20:29.375Z,4.80
2022-08-20T00:22:57.817Z,4.60
2022-08-20T00:25:26.391Z,4.70
2022-08-20T00:27:53.055Z,4.53
2022-08-20T00:30:20.353Z,4.77
2022-08-20T00:32:56.458Z,5.03
2022-08-20T00:35:25.428Z,5.07
2022-08-20T00:37:55.386Z,5.10
2022-08-20T00:40:29.511Z,5.80
2022-08-20T00:42:58.466Z,6.87
2022-08-20T00:45:28.080Z,6.43
2022-08-20T00:47:55.659Z,7.00
2022-08-20T00:50:32.594Z,7.67
2022-08-20T00:53:00.514Z,7.60
2022-08-20T00:55:31.373Z,8.43
2022-08-20T00:58:02.039Z,9.03
2022-08-20T01:00:39.981Z,8.73
2022-08-20T01:03:09.782Z,7.73
2022-08-20T01:05:39.182Z,7.03
2022-08-20T01:08:06.553Z,7.90
2022-08-20T01:10:37.293Z,7.83
2022-08-20T01:13:10.913Z,7.33
2022-08-20T01:15:43.919Z,7.73
2022-08-20T01:18:14.636Z,7.90
2022-08-20T01:20:45.837Z,7.60
2022-08-20T01:23:27.770Z,7.30
2022-08-20T01:26:07.077Z,7.43
2022-08-20T01:28:40.074Z,8.20
2022-08-20T01:31:11.302Z,7.60
2022-08-20T01:33:39.056Z,7.47
2022-08-20T01:36:06.724Z,8.07
2022-08-20T01:38:34.246Z,7.57
2022-08-20T01:41:07.794Z,10.13
2022-08-20T01:43:37.005Z,10.10
2022-08-20T01:46:04.170Z,10.00
2022-08-20T01:48:31.732Z,9.70
2022-08-20T01:51:04.819Z,10.90
2022-08-20T01:53:37.246Z,11.93
2022-08-20T01:56:07.736Z,13.00
2022-08-20T01:58:38.226Z,12.17
2022-08-20T02:01:05.616Z,12.80
2022-08-20T02:03:37.424Z,13.80
2022-08-20T02:06:06.948Z,14.00
2022-08-20T02:08:33.872Z,13.03
2022-08-20T02:11:00.649Z,12.57
2022-08-20T02:13:27.334Z,10.60
2022-08-20T02:15:54.408Z,12.60
2022-08-20T02:18:22.166Z,10.90
2022-08-20T02:20:51.536Z,12.30
2022-08-20T02:23:18.795Z,10.60
2022-08-20T02:25:47.579Z,11.10
2022-08-20T02:28:17.604Z,10.97
2022-08-20T02:30:48.519Z,11.37
2022-08-20T02:33:17.909Z,10.23
2022-08-20T02:35:48.572Z,10.93
2022-08-20T02:38:16.430Z,11.67
2022-08-20T02:40:44.263Z,9.87
2022-08-20T02:43:12.150Z,10.90
2022-08-20T02:45:43.792Z,11.17
2022-08-20T02:48:18.474Z,9.97
2022-08-20T02:50:45.210Z,10.03
2022-08-20T02:53:11.991Z,10.33
2022-08-20T02:55:38.826Z,10.50
2022-08-20T02:58:05.822Z,10.30
2022-08-20T03:00:37.874Z,10.23
2022-08-20T03:03:06.604Z,10.40
2022-08-20T03:05:33.305Z,10.50
2022-08-20T03:08:00.244Z,10.37
2022-08-20T03:10:32.136Z,10.57
2022-08-20T03:13:01.571Z,11.27
2022-08-20T03:15:30.514Z,10.77
2022-08-20T03:17:57.454Z,10.63
2022-08-20T03:20:26.009Z,13.73
2022-08-20T03:22:52.805Z,12.13
2022-08-20T03:25:19.859Z,12.97
2022-08-20T03:27:47.252Z,13.37
2022-08-20T03:30:22.594Z,14.07
2022-08-20T03:32:49.281Z,13.10
2022-08-20T03:35:17.209Z,15.03
2022-08-20T03:37:45.763Z,15.93
2022-08-20T03:40:21.257Z,17.57
2022-08-20T03:42:48.010Z,21.73
2022-08-20T03:45:18.489Z,20.50
2022-08-20T03:47:48.576Z,22.20
2022-08-20T03:50:22.906Z,22.90
2022-08-20T03:52:51.653Z,23.83
2022-08-20T03:55:20.029Z,23.40
2022-08-20T03:57:49.713Z,22.20
2022-08-20T04:00:20.773Z,24.23
2022-08-20T04:02:47.733Z,23.00
2022-08-20T04:05:14.718Z,22.97
2022-08-20T04:07:41.621Z,24.40
2022-08-20T04:10:10.739Z,23.63
2022-08-20T04:12:48.666Z,23.27
2022-08-20T04:15:24.563Z,23.07
2022-08-20T04:17:52.763Z,22.20
2022-08-20T04:20:23.822Z,22.73
2022-08-20T04:22:58.959Z,21.33
2022-08-20T04:25:35.985Z,21.13
2022-08-20T04:28:06.002Z,20.83
2022-08-20T04:30:33.666Z,20.03
2022-08-20T04:33:00.907Z,20.27
2022-08-20T04:35:32.586Z,20.53
2022-08-20T04:38:02.507Z,17.97
2022-08-20T04:40:48.370Z,19.87
2022-08-20T04:43:15.469Z,18.73
2022-08-20T04:45:42.472Z,18.90
2022-08-20T04:48:14.275Z,19.27
2022-08-20T04:50:43.671Z,19.37
2022-08-20T04:53:12.733Z,18.63
2022-08-20T04:55:42.804Z,19.33
2022-08-20T04:58:20.896Z,19.23
2022-08-20T05:01:01.333Z,19.43
2022-08-20T05:03:29.025Z,18.83
2022-08-20T05:05:56.931Z,18.43
2022-08-20T05:08:26.043Z,18.67
2022-08-20T05:10:58.111Z,18.17
2022-08-20T05:13:41.078Z,18.10
2022-08-20T05:16:08.149Z,18.33
2022-08-20T05:18:35.262Z,17.00
2022-08-20T05:21:06.151Z,17.23
2022-08-20T05:23:35.752Z,19.17
2022-08-20T05:26:07.542Z,17.37
2022-08-20T05:28:36.917Z,17.67
2022-08-20T05:31:20.916Z,16.27
2022-08-20T05:33:48.841Z,17.27
2022-08-20T05:36:15.575Z,16.20
2022-08-20T05:38:44.257Z,17.27
2022-08-20T05:41:29.022Z,16.90
2022-08-20T05:44:03.591Z,16.67
2022-08-20T05:46:31.822Z,15.73
2022-08-20T05:49:01.631Z,16.00
2022-08-20T05:51:32.371Z,15.70
2022-08-20T05:53:59.846Z,13.98
2022-08-20T05:56:30.644Z,13.50
2022-08-20T05:59:04.418Z,13.10
2022-08-20T06:01:33.545Z,12.57
2022-08-20T06:04:19.450Z,13.50
2022-08-20T06:06:47.391Z,12.95
2022-08-20T06:09:31.481Z,12.43
2022-08-20T06:12:04.162Z,11.63
2022-08-20T06:14:32.081Z,11.18
2022-08-20T06:17:06.359Z,11.98
2022-08-20T06:19:35.123Z,10.73
2022-08-20T06:22:06.798Z,9.98
2022-08-20T06:24:47.711Z,9.38
2022-08-20T06:27:16.359Z,8.82
2022-08-20T06:29:43.795Z,7.78
2022-08-20T06:32:10.471Z,6.60
2022-08-20T06:34:37.362Z,6.85
2022-08-20T06:37:16.050Z,7.43
2022-08-20T06:39:43.240Z,7.80
2022-08-20T06:42:09.970Z,7.80
2022-08-20T06:44:37.571Z,7.40
2022-08-20T06:47:05.821Z,6.45
2022-08-20T06:49:36.558Z,6.60
2022-08-20T06:52:05.409Z,6.50
2022-08-20T06:54:32.867Z,7.05
2022-08-20T06:56:59.799Z,7.13
2022-08-20T06:59:26.587Z,7.45
2022-08-20T07:01:56.784Z,7.10
2022-08-20T07:04:26.022Z,6.82
2022-08-20T07:06:55.018Z,6.93
2022-08-20T07:09:22.367Z,6.85
2022-08-20T07:11:49.653Z,7.78
2022-08-20T07:14:17.693Z,6.72
2022-08-20T07:16:45.105Z,7.70
2022-08-20T07:19:11.810Z,7.32
2022-08-20T07:21:39.430Z,7.20
2022-08-20T07:24:06.700Z,7.15
2022-08-20T07:26:34.569Z,6.68
2022-08-20T07:29:01.364Z,7.05
2022-08-20T07:31:48.146Z,6.50
2022-08-20T07:34:15.026Z,6.05
2022-08-20T07:36:41.742Z,6.07
2022-08-20T07:39:09.372Z,6.13
2022-08-20T07:41:36.324Z,5.97
2022-08-20T07:44:03.288Z,5.85
2022-08-20T07:46:31.716Z,6.25
2022-08-20T07:48:59.092Z,6.18
2022-08-20T07:51:26.157Z,5.60
2022-08-20T07:53:53.245Z,4.90
2022-08-20T07:59:25.105Z,5.07
2022-08-20T08:01:52.984Z,5.80
2022-08-20T08:04:19.871Z,4.40
2022-08-20T08:06:46.784Z,4.38
2022-08-20T08:09:14.915Z,4.60
2022-08-20T08:11:47.849Z,3.22
2022-08-20T08:14:19.701Z,3.10
2022-08-20T08:16:46.519Z,3.45
2022-08-20T08:19:16.952Z,3.80
2022-08-20T08:21:44.452Z,3.35
2022-08-20T08:24:14.350Z,3.80
2022-08-20T08:26:44.014Z,3.50
2022-08-20T08:29:12.148Z,4.07
2022-08-20T08:31:40.956Z,4.30
2022-08-20T08:34:08.159Z,3.35
2022-08-20T08:36:34.816Z,3.35
2022-08-20T08:39:01.648Z,2.83
2022-08-20T08:41:48.045Z,2.50
2022-08-20T08:44:27.582Z,2.35
2022-08-20T08:47:18.273Z,2.35
2022-08-20T08:49:47.674Z,2.38
2022-08-20T08:52:24.484Z,2.70
2022-08-20T08:54:55.775Z,2.60
2022-08-20T08:57:24.180Z,2.63
2022-08-20T09:00:03.626Z,2.95
2022-08-20T09:02:33.593Z,2.22
2022-08-20T09:05:04.249Z,2.33
2022-08-20T09:07:33.584Z,2.28
2022-08-20T09:10:01.495Z,2.25
2022-08-20T09:12:28.422Z,2.33
2022-08-20T09:14:55.190Z,2.70
2022-08-20T09:17:24.503Z,2.65
2022-08-20T09:19:53.245Z,2.30
2022-08-20T09:22:22.593Z,2.30
2022-08-20T09:24:49.944Z,2.25
2022-08-20T09:27:16.723Z,2.08
2022-08-20T09:29:44.035Z,2.30
2022-08-20T09:32:19.309Z,2.30
2022-08-20T09:34:52.546Z,2.20
2022-08-20T09:37:19.893Z,2.25
2022-08-20T09:39:47.670Z,2.03
2022-08-20T09:42:18.003Z,2.58
2022-08-20T09:44:45.351Z,2.20
2022-08-20T09:47:12.048Z,2.67
2022-08-20T09:49:39.281Z,2.20
2022-08-20T09:52:08.696Z,2.40
2022-08-20T09:54:37.374Z,2.70
2022-08-20T09:57:07.108Z,2.20
2022-08-20T09:59:35.709Z,2.60
2022-08-20T10:02:03.026Z,2.13
2022-08-20T10:04:30.197Z,2.10
2022-08-20T10:06:57.007Z,2.00
2022-08-20T10:09:24.302Z,2.17
2022-08-20T10:11:51.073Z,2.25
2022-08-20T10:14:17.775Z,2.58
2022-08-20T10:16:44.471Z,2.42
2022-08-20T10:19:11.183Z,2.38
2022-08-20T10:21:39.027Z,2.30
2022-08-20T10:24:06.185Z,2.22
2022-08-20T10:26:33.051Z,2.05
2022-08-20T10:28:59.794Z,2.20
2022-08-20T10:31:26.480Z,2.55
2022-08-20T10:33:53.116Z,2.33
2022-08-20T10:36:20.152Z,1.85
2022-08-20T10:38:48.597Z,2.40
2022-08-20T10:41:15.374Z,2.20
2022-08-20T10:43:42.074Z,1.80
2022-08-20T10:46:09.165Z,1.92
2022-08-20T10:48:35.886Z,2.05
2022-08-20T10:51:02.609Z,1.90
2022-08-20T10:53:29.631Z,1.85
2022-08-20T10:55:57.708Z,1.83
2022-08-20T10:58:25.921Z,1.80
2022-08-20T11:01:02.357Z,1.60
2022-08-20T11:03:29.316Z,1.50
2022-08-20T11:05:56.098Z,1.70
2022-08-20T11:08:34.430Z,1.73
2022-08-20T11:11:04.449Z,1.83
2022-08-20T11:13:31.224Z,1.48
2022-08-20T11:15:58.015Z,1.42
2022-08-20T11:18:27.908Z,1.45
2022-08-20T11:20:55.401Z,1.35
2022-08-20T11:23:22.433Z,1.45
2022-08-20T11:25:49.468Z,1.40
2022-08-20T11:28:16.415Z,1.73
2022-08-20T11:30:58.149Z,1.35
2022-08-20T11:33:24.892Z,1.50
2022-08-20T11:35:51.848Z,1.40
2022-08-20T11:38:19.327Z,1.42
2022-08-20T11:40:48.842Z,1.70
2022-08-20T11:43:17.557Z,1.42
2022-08-20T11:45:50.821Z,1.60
2022-08-20T11:48:18.205Z,1.48
2022-08-20T11:50:45.446Z,1.42
2022-08-20T11:53:12.202Z,1.42
2022-08-20T11:55:49.088Z,1.52
2022-08-20T11:58:22.502Z,1.60
2022-08-20T12:01:04.190Z,1.77
2022-08-20T12:03:31.082Z,1.38
2022-08-20T12:05:58.037Z,1.75
2022-08-20T12:08:26.824Z,1.25
2022-08-20T12:10:55.519Z,1.95
2022-08-20T12:13:31.026Z,1.60
2022-08-20T12:16:11.114Z,1.50
2022-08-20T12:18:37.847Z,1.50
2022-08-20T12:21:04.601Z,1.67
2022-08-20T12:23:31.442Z,1.60
2022-08-20T12:25:59.237Z,1.35
2022-08-20T12:28:26.134Z,1.70
2022-08-20T12:30:52.854Z,1.27
2022-08-20T12:33:19.910Z,1.00
2022-08-20T12:35:46.691Z,1.40
2022-08-20T12:38:13.639Z,1.40
2022-08-20T12:40:40.935Z,1.42
2022-08-20T12:43:08.593Z,1.63
2022-08-20T12:45:36.414Z,1.55
2022-08-20T12:48:12.534Z,1.60
2022-08-20T12:50:41.892Z,1.55
2022-08-20T12:53:09.297Z,1.92
2022-08-20T12:55:36.430Z,1.30
2022-08-20T12:58:04.370Z,1.75
2022-08-20T13:00:34.816Z,1.70
2022-08-20T13:03:03.688Z,1.83
2022-08-20T13:05:31.271Z,2.03
2022-08-20T13:07:58.249Z,1.75
2022-08-20T13:10:28.424Z,2.00
2022-08-20T13:12:56.019Z,1.88
2022-08-20T13:15:23.545Z,1.90
2022-08-20T13:17:54.933Z,1.80
2022-08-20T13:20:34.541Z,1.92
2022-08-20T13:23:05.655Z,1.80
2022-08-20T13:25:33.541Z,1.98
2022-08-20T13:28:03.803Z,1.67
2022-08-20T13:30:35.488Z,1.70
2022-08-20T13:33:02.382Z,1.90
2022-08-20T13:35:30.019Z,1.70
2022-08-20T13:37:56.884Z,1.60
2022-08-20T13:40:23.685Z,1.60
2022-08-20T13:42:50.514Z,1.48
2022-08-20T13:45:17.645Z,2.05
2022-08-20T13:47:44.904Z,1.48
2022-08-20T13:50:18.776Z,1.50
2022-08-20T13:52:45.999Z,1.73
2022-08-20T13:55:16.608Z,1.38
2022-08-20T13:57:44.293Z,1.45
2022-08-20T14:00:15.086Z,1.63
2022-08-20T14:02:42.997Z,1.50
2022-08-20T14:05:11.315Z,1.33
2022-08-20T14:07:40.941Z,1.48
2022-08-20T14:10:11.781Z,1.50
2022-08-20T14:12:38.590Z,1.60
2022-08-20T14:15:06.867Z,1.80
2022-08-20T14:17:37.553Z,1.50
2022-08-20T14:20:17.051Z,1.60
2022-08-20T14:22:44.511Z,1.70
2022-08-20T14:25:14.317Z,1.75
2022-08-20T14:27:41.993Z,2.00
2022-08-20T14:30:12.603Z,1.40
2022-08-20T14:32:39.491Z,1.33
2022-08-20T14:35:07.373Z,1.60
2022-08-20T14:37:38.080Z,1.40
2022-08-20T14:40:08.908Z,1.65
2022-08-20T14:42:36.713Z,1.58
2022-08-20T14:45:06.480Z,1.60
2022-08-20T14:47:36.706Z,1.70
2022-08-20T14:50:09.958Z,2.15
2022-08-20T14:52:37.478Z,1.50
2022-08-20T14:55:06.010Z,1.30
2022-08-20T14:57:33.831Z,1.55
2022-08-20T15:00:00.750Z,1.75
2022-08-20T15:02:27.646Z,1.60
2022-08-20T15:04:54.864Z,1.40
2022-08-20T15:07:31.556Z,1.88
2022-08-20T15:10:00.506Z,1.45
2022-08-20T15:12:28.179Z,1.40
2022-08-20T15:14:54.971Z,1.48
2022-08-20T15:17:25.018Z,1.38
2022-08-20T15:19:52.579Z,1.98
2022-08-20T15:22:20.862Z,1.20
2022-08-20T15:24:47.852Z,1.48
2022-08-20T15:27:22.256Z,1.70
2022-08-20T15:29:50.725Z,1.58
2022-08-20T15:32:17.720Z,1.50
2022-08-20T15:34:44.656Z,1.52
2022-08-20T15:37:12.681Z,1.63
2022-08-20T15:39:41.073Z,1.52
2022-08-20T15:42:08.896Z,1.40
2022-08-20T15:44:36.541Z,1.48
2022-08-20T15:47:20.637Z,1.33
2022-08-20T15:49:49.777Z,1.50
2022-08-20T15:52:17.897Z,1.50
2022-08-20T15:54:46.847Z,1.73
2022-08-20T15:57:44.939Z,1.70
2022-08-20T16:00:20.138Z,1.80
2022-08-20T16:02:46.803Z,1.45
2022-08-20T16:05:27.757Z,1.58
2022-08-20T16:08:03.801Z,2.20
2022-08-20T16:10:58.930Z,2.40
2022-08-20T16:13:40.517Z,1.70
2022-08-20T16:16:17.926Z,3.38
2022-08-20T16:18:48.647Z,1.70
2022-08-20T16:21:19.101Z,2.03
2022-08-20T16:23:46.146Z,2.72
2022-08-20T16:26:47.193Z,2.30
2022-08-20T16:29:30.564Z,1.70
2022-08-20T16:32:03.796Z,1.90
2022-08-20T16:34:45.179Z,1.83
2022-08-20T16:37:28.032Z,1.55
2022-08-20T16:40:04.131Z,1.50
2022-08-20T16:42:37.365Z,1.42
2022-08-20T16:45:07.345Z,1.70
2022-08-20T16:47:36.374Z,1.60
2022-08-20T16:50:13.432Z,1.63
2022-08-20T16:52:42.539Z,1.88
2022-08-20T16:55:10.046Z,1.42
2022-08-20T16:57:36.887Z,1.50
2022-08-20T17:00:15.855Z,1.60
2022-08-20T17:02:54.014Z,1.77
2022-08-20T17:05:22.341Z,1.67
2022-08-20T17:07:53.415Z,1.38
2022-08-20T17:10:29.878Z,1.50
2022-08-20T17:13:00.017Z,1.90
2022-08-20T17:15:30.344Z,1.75
2022-08-20T17:17:57.798Z,1.80
2022-08-20T17:20:28.180Z,1.60
2022-08-20T17:23:10.959Z,1.65
2022-08-20T17:25:38.458Z,1.60
2022-08-20T17:28:20.057Z,1.77
2022-08-20T17:30:47.414Z,1.30
2022-08-20T17:33:37.392Z,1.67
2022-08-20T17:36:16.993Z,1.77
2022-08-20T17:38:47.706Z,1.30
2022-08-20T17:41:21.910Z,1.50
2022-08-20T17:43:57.511Z,1.50
2022-08-20T17:46:27.884Z,1.33
2022-08-20T17:48:57.776Z,1.38
2022-08-20T17:51:30.392Z,2.20
2022-08-20T17:54:08.808Z,1.25
2022-08-20T17:56:40.861Z,1.73
2022-08-20T18:00:02.647Z,1.48
2022-08-20T18:02:15.552Z,1.50
2022-08-20T18:04:42.851Z,1.55
2022-08-20T18:07:16.631Z,1.65
2022-08-20T18:09:52.439Z,1.45
2022-08-20T18:12:37.078Z,1.40
2022-08-20T18:15:24.723Z,1.30
2022-08-20T18:18:10.007Z,1.80
2022-08-20T18:20:39.494Z,1.77
2022-08-20T18:23:12.245Z,1.60
2022-08-20T18:26:02.682Z,1.48
2022-08-20T18:28:38.695Z,1.50
2022-08-20T18:31:08.993Z,1.35
2022-08-20T18:33:45.733Z,1.60
2022-08-20T18:36:19.469Z,1.38
2022-08-20T18:39:35.877Z,1.55
2022-08-20T18:42:06.932Z,1.30
2022-08-20T18:44:43.888Z,1.77
2022-08-20T18:47:32.693Z,1.20
2022-08-20T18:50:27.264Z,1.47
2022-08-20T18:53:14.765Z,1.70
2022-08-20T18:55:47.423Z,1.30
2022-08-20T18:58:34.543Z,1.63
2022-08-20T19:01:04.826Z,1.90
2022-08-20T19:03:43.592Z,1.40
2022-08-20T19:06:20.674Z,1.70
2022-08-20T19:09:04.311Z,2.30
2022-08-20T19:11:41.643Z,1.50
2022-08-20T19:14:22.713Z,1.67
2022-08-20T19:17:04.725Z,1.50
2022-08-20T19:19:33.084Z,1.43
2022-08-20T19:22:02.125Z,2.20
2022-08-20T19:24:35.016Z,1.37
2022-08-20T19:27:11.941Z,1.70
2022-08-20T19:29:49.954Z,1.60
2022-08-20T19:32:34.509Z,1.10
2022-08-20T19:35:07.466Z,1.57
2022-08-20T19:37:51.442Z,1.60
2022-08-20T19:40:29.976Z,1.80
2022-08-20T19:43:00.582Z,1.90
2022-08-20T19:45:41.240Z,1.90
2022-08-20T19:48:27.531Z,1.60
2022-08-20T19:51:06.313Z,1.40
2022-08-20T19:53:36.065Z,2.10
2022-08-20T19:56:24.288Z,1.90
2022-08-20T19:59:03.547Z,1.52
2022-08-20T20:01:30.865Z,1.47
2022-08-20T20:04:04.021Z,1.80
2022-08-20T20:06:36.401Z,1.40
2022-08-20T20:09:08.596Z,1.63
2022-08-20T20:11:45.009Z,1.90
2022-08-20T20:14:13.473Z,1.70
2022-08-20T20:16:42.297Z,1.90
2022-08-20T20:19:27.975Z,1.80
2022-08-20T20:22:26.717Z,1.70
2022-08-20T20:25:19.589Z,2.20
2022-08-20T20:27:51.803Z,1.70
2022-08-20T20:30:29.695Z,2.03
2022-08-20T20:32:58.001Z,1.50
2022-08-20T20:35:31.590Z,2.17
2022-08-20T20:38:07.580Z,1.70
2022-08-20T20:40:51.731Z,1.93
2022-08-20T20:43:29.436Z,1.90
2022-08-20T20:46:07.643Z,2.30
2022-08-20T20:48:50.211Z,1.90
2022-08-20T20:51:31.105Z,2.00
2022-08-20T20:54:05.342Z,2.00
2022-08-20T20:56:42.228Z,1.60
2022-08-20T20:59:10.420Z,1.97
2022-08-20T21:01:49.413Z,2.00
2022-08-20T21:04:23.027Z,1.87
2022-08-20T21:06:52.444Z,1.80
2022-08-20T21:09:19.985Z,2.03
2022-08-20T21:11:47.581Z,2.43
2022-08-20T21:14:15.054Z,2.10
2022-08-20T21:16:42.850Z,2.13
2022-08-20T21:19:11.200Z,2.10
2022-08-20T21:21:39.099Z,1.90
2022-08-20T21:24:07.211Z,1.80
2022-08-20T21:26:34.460Z,2.00
2022-08-20T21:29:01.338Z,1.83
2022-08-20T21:31:33.779Z,1.90
2022-08-20T21:34:00.907Z,1.80
2022-08-20T21:36:39.899Z,1.83
2022-08-20T21:39:14.157Z,1.70
2022-08-20T21:41:42.579Z,1.90
2022-08-20T21:44:21.527Z,1.93
2022-08-20T21:46:51.595Z,2.70
2022-08-20T21:49:19.869Z,2.00
2022-08-20T21:51:47.834Z,1.93
2022-08-20T21:54:15.204Z,1.70
2022-08-20T21:56:42.383Z,2.13
2022-08-20T21:59:10.348Z,2.10
2022-08-20T22:01:38.234Z,2.10
2022-08-20T22:04:06.640Z,1.87
2022-08-20T22:06:33.812Z,1.87
2022-08-20T22:09:00.534Z,2.67
2022-08-20T22:11:27.745Z,1.97
2022-08-20T22:13:54.520Z,2.00
2022-08-20T22:16:22.546Z,2.33
2022-08-20T22:18:50.794Z,2.13
2022-08-20T22:21:26.776Z,2.47
2022-08-20T22:23:57.109Z,1.80
2022-08-20T22:26:27.198Z,1.80
2022-08-20T22:28:54.444Z,2.00
2022-08-20T22:31:26.279Z,2.20
2022-08-20T22:33:53.154Z,1.97
2022-08-20T22:36:19.868Z,2.27
2022-08-20T22:38:47.372Z,2.00
2022-08-20T22:41:22.630Z,2.60
2022-08-20T22:43:56.970Z,2.20
2022-08-20T22:46:27.328Z,2.17
2022-08-20T22:48:55.586Z,2.37
2022-08-20T22:51:27.596Z,2.23
2022-08-20T22:53:54.415Z,2.10
2022-08-20T22:56:22.008Z,3.40
2022-08-20T22:58:50.145Z,2.33
2022-08-20T23:01:18.794Z,2.17
2022-08-20T23:03:45.844Z,2.20
2022-08-20T23:06:13.050Z,2.53
2022-08-20T23:08:41.797Z,2.17
2022-08-20T23:11:08.606Z,2.03
2022-08-20T23:13:35.380Z,2.00
2022-08-20T23:16:02.576Z,2.67
2022-08-20T23:18:29.297Z,2.37
2022-08-20T23:20:59.007Z,2.70
2022-08-20T23:23:26.908Z,2.20
2022-08-20T23:25:54.493Z,2.17
2022-08-20T23:28:23.964Z,2.63
2022-08-20T23:30:51.249Z,2.50
2022-08-20T23:33:18.551Z,2.27
2022-08-20T23:35:46.074Z,2.47
2022-08-20T23:38:13.098Z,2.40
2022-08-20T23:40:40.351Z,1.87
2022-08-20T23:43:07.621Z,2.50
2022-08-20T23:45:35.104Z,2.77
2022-08-20T23:48:06.752Z,2.50
2022-08-20T23:50:34.131Z,2.53
2022-08-20T23:53:00.989Z,2.83
2022-08-20T23:55:28.014Z,2.57
2022-08-20T23:57:55.309Z,2.70
